Impacts TAF Board INFO
FOR SITUATIONAL AWARENESS. NOT TO BE USED FOR FLIGHT PLANNING PURPOSES.
IDs:

KSEA - Seattle-Tacoma Intl, WA, US

Issued at 0843 UTC 17 Jul 2018
Updated at 1123 UTC 17 Jul 2018
Potential Impact None Slight Moderate High
Time1053Z 17/12Z 17/13Z 17/14Z 17/15Z 17/16Z 17/17Z 17/18Z 17/19Z 17/20Z 17/21Z 17/22Z 17/23Z 18/00Z>>
Type OBS PRVL PRVL PRVL PRVL PRVL PRVL PRVL PRVL PRVL PRVL PRVL PRVL PRVL
VIS 10 >6 >6 >6 >6 >6 >6 >6 >6 >6 >6 >6 >6 >6
CIG -- -- -- -- -- -- -- -- -- -- -- -- -- --
Cover CLR SKC SKC SKC SKC SKC SKC SKC SKC SKC SKC SKC SKC SKC
FltCat VFR VFR VFR VFR VFR VFR VFR VFR VFR VFR VFR VFR VFR VFR
WX -- -- -- -- -- -- -- -- -- -- -- -- -- --
WDir 190 200 200 200 200 200 200 230 230 230 230 230 230 230
WSpd 4 4 4 4 4 4 4 8 8 8 8 8 8 8
WGst -- -- -- -- -- -- -- -- -- -- -- -- -- --

Raw TAF
KSEA 170843Z 1709/1812 VRB04KT P6SM SKC
  FM171200 20004KT P6SM SKC
  FM171800 23008KT P6SM SKC


Raw METAR
KSEA 171053Z 19004KT 10SM CLR 18/12 A3001 RMK AO2 SLP165 T01780117
KSEA 170953Z 18004KT 10SM CLR 18/11 A3000 RMK AO2 SLP162 T01830106
KSEA 170853Z 17003KT 10SM CLR 20/10 A3000 RMK AO2 SLP160 T02000100 51006

METAR Board
Radar Display
Forecast Discussion

FOR SITUATIONAL AWARENESS. NOT TO BE USED FOR FLIGHT PLANNING PURPOSES.